Time;durP1;ratioP1;P1;durP2;ratioP2;P2;SDS_P1;SDS_P2;PMS_P1;PMS_P2;Temp;Humidity;BMP_temperature;BMP_pressure;BME280_temperature;BME280_humidity;BME280_pressure;Samples;Min_cycle;Max_cycle;Signal;HPM_P1;HPM_P2
2021/06/20 00:00:51;;;;;;;11.10;10.30;;;22.70;99.90;;;;;;5007759;28;20619;-64
2021/06/20 00:03:16;;;;;;;9.50;8.73;;;22.70;99.90;;;;;;5021982;28;20250;-64
2021/06/20 00:06:23;;;;;;;9.70;9.00;;;22.70;99.90;;;;;;5007858;28;20990;-64
2021/06/20 00:08:48;;;;;;;9.93;9.20;;;22.70;99.90;;;;;;5010333;28;20194;-64
2021/06/20 00:11:14;;;;;;;9.37;8.67;;;22.70;99.90;;;;;;5019796;28;20728;-64
2021/06/20 00:13:39;;;;;;;9.60;8.80;;;22.70;99.90;;;;;;5019616;28;20267;-64
2021/06/20 00:16:05;;;;;;;10.50;9.50;;;22.70;99.90;;;;;;5023652;28;20250;-64
2021/06/20 00:18:31;;;;;;;9.47;8.77;;;22.70;99.90;;;;;;5019499;28;20188;-64
2021/06/20 00:20:56;;;;;;;9.90;9.20;;;22.60;99.90;;;;;;5016566;28;20209;-64
2021/06/20 00:23:22;;;;;;;9.60;8.90;;;22.60;99.90;;;;;;5015029;28;20368;-64
2021/06/20 00:25:47;;;;;;;9.60;8.90;;;22.60;99.90;;;;;;5024065;28;20252;-64
2021/06/20 00:28:13;;;;;;;9.20;8.50;;;22.60;99.90;;;;;;5023619;28;20220;-64
2021/06/20 00:30:39;;;;;;;9.70;8.93;;;22.60;99.90;;;;;;5007575;28;20219;-65
2021/06/20 00:33:05;;;;;;;8.90;8.17;;;22.60;99.90;;;;;;5005823;28;20231;-64
2021/06/20 00:35:31;;;;;;;9.23;8.63;;;22.60;99.90;;;;;;4996403;28;20702;-64
2021/06/20 00:37:56;;;;;;;10.43;9.53;;;22.50;99.90;;;;;;5022883;28;21176;-64
2021/06/20 00:40:23;;;;;;;10.03;9.13;;;22.50;99.90;;;;;;5017195;28;20221;-64
2021/06/20 00:42:49;;;;;;;10.10;9.40;;;22.50;99.90;;;;;;5020607;28;20288;-64
2021/06/20 00:45:17;;;;;;;11.30;10.40;;;22.50;99.90;;;;;;5019499;28;20671;-65
2021/06/20 00:47:43;;;;;;;9.87;9.17;;;22.50;99.90;;;;;;5021438;28;20894;-64
2021/06/20 00:50:12;;;;;;;10.70;9.70;;;22.40;99.90;;;;;;5019298;28;20654;-64
2021/06/20 00:52:38;;;;;;;10.97;10.17;;;22.40;99.90;;;;;;5030198;28;20688;-64
2021/06/20 00:55:05;;;;;;;10.67;9.87;;;22.40;99.90;;;;;;5034567;28;20645;-64
2021/06/20 00:57:34;;;;;;;10.43;9.73;;;22.40;99.90;;;;;;5032257;28;20617;-64
2021/06/20 01:00:00;;;;;;;10.33;9.53;;;22.30;99.90;;;;;;5024377;28;20764;-64
2021/06/20 01:02:27;;;;;;;10.63;9.67;;;22.20;99.90;;;;;;5025428;28;21184;-65
2021/06/20 01:04:55;;;;;;;10.73;9.93;;;22.30;99.90;;;;;;5015164;28;20636;-64
2021/06/20 01:07:24;;;;;;;10.13;9.40;;;22.30;99.90;;;;;;5021936;28;20692;-64
2021/06/20 01:09:53;;;;;;;11.53;10.53;;;22.30;99.90;;;;;;5025589;28;20676;-64
2021/06/20 01:12:21;;;;;;;10.80;10.00;;;22.30;99.90;;;;;;5017241;28;21177;-64
2021/06/20 01:14:48;;;;;;;11.27;10.27;;;22.20;99.90;;;;;;5020257;28;24978;-64
2021/06/20 01:17:14;;;;;;;11.03;10.17;;;22.20;99.90;;;;;;5021414;28;20709;-66
2021/06/20 01:19:42;;;;;;;10.93;10.03;;;22.20;99.90;;;;;;5022299;28;20627;-64
2021/06/20 01:22:20;;;;;;;11.70;10.63;;;22.20;99.90;;;;;;5013988;28;20665;-64
2021/06/20 01:24:51;;;;;;;11.10;10.20;;;22.10;99.90;;;;;;5023471;28;20647;-66
2021/06/20 01:27:16;;;;;;;11.93;11.03;;;22.10;99.90;;;;;;5028168;28;20650;-64
2021/06/20 01:29:47;;;;;;;12.17;11.27;;;22.20;99.90;;;;;;5013656;28;21191;-64
2021/06/20 01:32:14;;;;;;;12.10;11.10;;;22.20;99.90;;;;;;5008840;28;20230;-65
2021/06/20 01:34:40;;;;;;;11.37;10.37;;;22.20;99.90;;;;;;5010405;28;20635;-64
2021/06/20 01:37:10;;;;;;;11.50;10.57;;;22.10;99.90;;;;;;5018298;28;20627;-67
2021/06/20 01:39:37;;;;;;;11.50;10.50;;;22.20;99.90;;;;;;5017857;28;20208;-64
2021/06/20 01:42:06;;;;;;;11.40;10.50;;;22.10;99.90;;;;;;5021986;28;20643;-64
2021/06/20 01:45:09;;;;;;;10.10;9.30;;;22.10;99.90;;;;;;5025473;28;20657;-64
2021/06/20 01:47:36;;;;;;;10.83;9.93;;;22.10;99.90;;;;;;5021737;28;20627;-65
2021/06/20 01:50:08;;;;;;;12.10;11.10;;;22.10;99.90;;;;;;5016329;28;20663;-64
2021/06/20 01:52:34;;;;;;;11.63;10.73;;;22.10;99.90;;;;;;5016545;28;22022;-64
2021/06/20 01:54:59;;;;;;;11.90;10.90;;;22.10;99.90;;;;;;5027935;28;20627;-64
2021/06/20 01:57:30;;;;;;;11.23;10.40;;;22.10;99.90;;;;;;5021822;28;20204;-64
2021/06/20 01:59:58;;;;;;;11.30;10.40;;;22.10;99.90;;;;;;5027841;28;20189;-64
2021/06/20 02:02:25;;;;;;;11.63;10.70;;;22.10;99.90;;;;;;5019859;28;20630;-64
2021/06/20 02:04:52;;;;;;;12.43;11.43;;;22.10;99.90;;;;;;5018535;28;20639;-64
2021/06/20 02:07:18;;;;;;;12.73;11.67;;;22.10;99.90;;;;;;5024836;28;21183;-64
2021/06/20 02:09:44;;;;;;;12.80;11.63;;;22.00;99.90;;;;;;5023970;28;20654;-65
2021/06/20 02:12:12;;;;;;;13.47;12.27;;;22.00;99.90;;;;;;5021298;28;20647;-64
2021/06/20 02:14:39;;;;;;;12.70;11.70;;;22.00;99.90;;;;;;5033831;28;20722;-65
2021/06/20 02:17:22;;;;;;;13.13;12.10;;;22.00;99.90;;;;;;5002076;28;20627;-64
2021/06/20 02:19:47;;;;;;;13.13;12.13;;;22.00;99.90;;;;;;5001898;28;20864;-64
2021/06/20 02:22:14;;;;;;;13.73;12.43;;;22.00;99.90;;;;;;5016346;28;20754;-64
2021/06/20 02:24:39;;;;;;;14.30;13.20;;;22.00;99.90;;;;;;4987196;28;20384;-64
2021/06/20 02:27:06;;;;;;;13.90;12.80;;;21.90;99.90;;;;;;5000594;28;20752;-64
2021/06/20 02:29:32;;;;;;;14.43;13.33;;;21.90;99.90;;;;;;5027124;28;20192;-64
2021/06/20 02:31:58;;;;;;;14.00;12.90;;;21.90;99.90;;;;;;5018017;28;21043;-64
2021/06/20 02:34:24;;;;;;;14.10;12.80;;;21.90;99.90;;;;;;5007821;28;20641;-64
2021/06/20 02:36:49;;;;;;;15.07;13.57;;;21.90;99.90;;;;;;5027037;28;20708;-64
2021/06/20 02:39:15;;;;;;;14.40;13.23;;;21.90;99.90;;;;;;5020927;28;20192;-64
2021/06/20 02:41:41;;;;;;;14.23;13.10;;;21.80;99.90;;;;;;5022140;28;20220;-63
2021/06/20 02:44:06;;;;;;;14.17;12.97;;;21.90;99.90;;;;;;5018288;28;20229;-64
2021/06/20 02:46:32;;;;;;;13.60;12.43;;;21.90;99.90;;;;;;4994328;28;20192;-63
2021/06/20 02:48:57;;;;;;;13.83;12.83;;;21.90;99.90;;;;;;5018367;28;20224;-64
2021/06/20 02:51:23;;;;;;;15.57;14.27;;;21.80;99.90;;;;;;5017297;28;20607;-64
2021/06/20 02:53:48;;;;;;;15.00;13.80;;;21.80;99.90;;;;;;5021122;28;20252;-66
2021/06/20 02:56:14;;;;;;;15.07;13.70;;;21.80;99.90;;;;;;5000645;28;20197;-64
2021/06/20 02:58:39;;;;;;;14.33;13.13;;;21.80;99.90;;;;;;5023762;28;20191;-64
2021/06/20 03:01:05;;;;;;;17.47;16.00;;;21.80;99.90;;;;;;5025777;28;20215;-65
2021/06/20 03:03:30;;;;;;;14.90;13.70;;;21.80;99.90;;;;;;5023248;28;20231;-64
2021/06/20 03:05:56;;;;;;;15.27;14.07;;;21.90;99.90;;;;;;5028233;28;20204;-64
2021/06/20 03:08:21;;;;;;;16.87;15.53;;;21.80;99.90;;;;;;5031869;28;20233;-64
2021/06/20 03:10:47;;;;;;;14.80;13.57;;;21.80;99.90;;;;;;5023877;28;20233;-64
2021/06/20 03:13:13;;;;;;;15.70;14.50;;;21.80;99.90;;;;;;5024645;28;20232;-65
2021/06/20 03:15:39;;;;;;;14.80;13.70;;;21.80;99.90;;;;;;5024244;28;20191;-64
2021/06/20 03:18:06;;;;;;;16.63;15.13;;;21.80;99.90;;;;;;5025103;28;20337;-64
2021/06/20 03:20:32;;;;;;;14.57;13.17;;;21.80;99.90;;;;;;5026361;28;22834;-65
2021/06/20 03:22:57;;;;;;;17.20;15.90;;;21.90;99.90;;;;;;5013103;28;24231;-64
2021/06/20 03:25:23;;;;;;;16.87;15.57;;;21.90;99.90;;;;;;5029728;28;20638;-64
2021/06/20 03:27:51;;;;;;;16.43;15.13;;;21.90;99.90;;;;;;5019832;28;20264;-65
2021/06/20 03:30:17;;;;;;;14.93;13.67;;;21.90;99.90;;;;;;5012435;28;20751;-66
2021/06/20 03:32:43;;;;;;;15.77;14.57;;;21.90;99.90;;;;;;5005002;28;20623;-64
2021/06/20 03:35:09;;;;;;;15.70;14.50;;;21.90;99.90;;;;;;5024401;28;20215;-64
2021/06/20 03:37:34;;;;;;;15.80;14.53;;;21.90;99.90;;;;;;5021403;28;21490;-64
2021/06/20 03:40:00;;;;;;;15.93;14.63;;;21.90;99.90;;;;;;5017380;28;20765;-64
2021/06/20 03:42:26;;;;;;;15.97;14.57;;;21.90;99.90;;;;;;5011659;28;20235;-65
2021/06/20 03:44:51;;;;;;;15.13;13.90;;;21.90;99.90;;;;;;5021370;28;20243;-65
2021/06/20 03:47:17;;;;;;;16.10;14.90;;;21.90;99.90;;;;;;5026067;28;20196;-64
2021/06/20 03:49:42;;;;;;;15.00;13.80;;;21.90;99.90;;;;;;5020579;28;20875;-64
2021/06/20 03:52:08;;;;;;;16.13;14.83;;;21.90;99.90;;;;;;5022142;28;20587;-64
2021/06/20 03:54:34;;;;;;;15.80;14.53;;;21.90;99.90;;;;;;4999185;28;20303;-64
2021/06/20 03:56:59;;;;;;;15.27;13.97;;;22.00;99.90;;;;;;5025423;28;20576;-65
2021/06/20 03:59:26;;;;;;;15.30;14.07;;;22.00;99.90;;;;;;5027807;28;20271;-64
2021/06/20 04:01:52;;;;;;;14.53;13.33;;;22.00;99.90;;;;;;5022647;28;20204;-64
2021/06/20 04:04:19;;;;;;;16.00;14.60;;;22.00;99.90;;;;;;5015631;28;20633;-64
2021/06/20 04:06:45;;;;;;;15.67;14.37;;;22.00;99.90;;;;;;5012659;28;20643;-64
2021/06/20 04:09:11;;;;;;;15.10;14.00;;;22.00;99.90;;;;;;5032869;28;20791;-64
2021/06/20 04:11:37;;;;;;;15.53;14.20;;;22.10;99.90;;;;;;5017080;28;20773;-64
2021/06/20 04:14:02;;;;;;;14.50;13.50;;;22.10;99.90;;;;;;5020910;28;20228;-64
2021/06/20 04:16:28;;;;;;;15.63;14.43;;;22.20;99.90;;;;;;5023144;28;20189;-65
2021/06/20 04:18:53;;;;;;;15.40;14.20;;;22.20;99.90;;;;;;5027389;28;20197;-64
2021/06/20 04:21:21;;;;;;;17.13;15.60;;;22.20;99.90;;;;;;5016992;28;20217;-64
2021/06/20 04:23:48;;;;;;;16.30;14.93;;;22.20;99.90;;;;;;5020242;28;20302;-64
2021/06/20 04:26:14;;;;;;;15.57;14.43;;;22.30;99.90;;;;;;5035254;28;21180;-68
2021/06/20 04:28:40;;;;;;;15.70;14.50;;;22.20;99.90;;;;;;5032563;28;20625;-68
2021/06/20 04:31:06;;;;;;;18.60;16.90;;;22.20;99.90;;;;;;5028443;28;20208;-68
2021/06/20 04:33:32;;;;;;;18.70;17.30;;;22.20;99.90;;;;;;4997216;28;20646;-67
2021/06/20 04:35:58;;;;;;;18.87;17.30;;;22.20;99.90;;;;;;5019921;28;20273;-67
2021/06/20 04:38:23;;;;;;;18.20;16.90;;;22.30;99.90;;;;;;5022326;28;20653;-67
2021/06/20 04:40:51;;;;;;;18.80;17.20;;;22.30;99.90;;;;;;5023261;28;20661;-68
2021/06/20 04:43:26;;;;;;;17.10;15.90;;;22.30;99.90;;;;;;5020799;28;20261;-67
2021/06/20 04:45:52;;;;;;;17.00;15.73;;;22.40;99.90;;;;;;5013942;28;20711;-68
2021/06/20 04:48:18;;;;;;;15.57;14.40;;;22.50;99.90;;;;;;4997703;28;20742;-67
2021/06/20 04:50:43;;;;;;;16.13;14.77;;;22.40;99.90;;;;;;5021362;28;20987;-67
2021/06/20 04:53:09;;;;;;;15.47;14.27;;;22.50;99.90;;;;;;5021346;28;20244;-68
2021/06/20 04:55:35;;;;;;;15.07;13.97;;;22.60;99.90;;;;;;5000543;28;20238;-68
2021/06/20 04:58:01;;;;;;;15.50;14.30;;;22.50;99.90;;;;;;5023511;28;20481;-68
2021/06/20 05:00:26;;;;;;;13.97;12.97;;;22.50;99.90;;;;;;5025130;28;20283;-68
2021/06/20 05:02:52;;;;;;;14.67;13.47;;;22.50;99.90;;;;;;4999689;28;21259;-67
2021/06/20 05:05:18;;;;;;;13.80;12.80;;;22.50;99.90;;;;;;5025328;28;20261;-68
2021/06/20 05:07:43;;;;;;;13.20;12.20;;;22.50;99.90;;;;;;5024612;28;20342;-68
2021/06/20 05:10:09;;;;;;;12.73;11.63;;;22.50;99.90;;;;;;5002188;28;24072;-68
2021/06/20 05:12:35;;;;;;;11.87;10.80;;;22.60;99.90;;;;;;5022982;28;20186;-68
2021/06/20 05:15:01;;;;;;;9.50;8.73;;;22.60;99.90;;;;;;5017447;28;20689;-68
2021/06/20 05:17:26;;;;;;;10.73;9.73;;;22.50;99.90;;;;;;5005117;28;20539;-68
2021/06/20 05:19:52;;;;;;;11.47;9.90;;;22.50;99.90;;;;;;5020767;28;20193;-68
2021/06/20 05:22:19;;;;;;;10.70;9.70;;;22.50;99.90;;;;;;5013577;28;20366;-68
2021/06/20 05:24:44;;;;;;;10.77;9.80;;;22.50;99.90;;;;;;5021480;28;20234;-68
2021/06/20 05:27:10;;;;;;;10.17;9.27;;;22.50;99.90;;;;;;5010246;28;20618;-67
2021/06/20 05:29:36;;;;;;;9.37;8.77;;;22.50;99.90;;;;;;5001770;28;20204;-68
2021/06/20 05:32:02;;;;;;;9.77;8.60;;;22.40;99.90;;;;;;5020554;28;21193;-68
2021/06/20 05:34:27;;;;;;;7.70;7.10;;;22.30;99.90;;;;;;5027805;28;20641;-68
2021/06/20 05:36:53;;;;;;;7.47;6.87;;;22.30;99.90;;;;;;5000929;28;20279;-67
2021/06/20 05:39:19;;;;;;;7.17;6.47;;;22.30;99.90;;;;;;5026374;28;20514;-69
2021/06/20 05:41:44;;;;;;;7.00;6.50;;;22.10;99.90;;;;;;5021779;28;20279;-68
2021/06/20 05:44:10;;;;;;;6.60;5.90;;;22.00;99.90;;;;;;4994245;28;20244;-69
2021/06/20 05:46:35;;;;;;;5.83;5.40;;;21.90;99.90;;;;;;5003506;28;20407;-64
2021/06/20 05:49:01;;;;;;;6.20;5.70;;;21.90;99.90;;;;;;5028711;28;20826;-64
2021/06/20 05:51:27;;;;;;;6.17;5.17;;;21.90;99.90;;;;;;5019755;28;20897;-64
2021/06/20 05:53:52;;;;;;;5.10;4.70;;;21.90;99.90;;;;;;5025596;28;20230;-64
2021/06/20 05:56:19;;;;;;;5.30;4.77;;;21.90;99.90;;;;;;5020148;28;20549;-64
2021/06/20 05:58:44;;;;;;;5.30;4.80;;;21.80;99.90;;;;;;5020337;28;20578;-64
2021/06/20 06:01:10;;;;;;;5.23;4.57;;;21.80;99.90;;;;;;5007591;28;20769;-64
2021/06/20 06:03:38;;;;;;;5.93;4.43;;;21.70;99.90;;;;;;5029650;28;20220;-65
2021/06/20 06:06:04;;;;;;;4.70;4.27;;;21.70;99.90;;;;;;5034798;28;20645;-65
2021/06/20 06:08:30;;;;;;;4.80;4.40;;;21.70;99.90;;;;;;5031066;28;20618;-65
2021/06/20 06:10:57;;;;;;;4.13;3.70;;;21.70;99.90;;;;;;5011924;28;21037;-65
2021/06/20 06:13:22;;;;;;;4.57;4.07;;;21.70;99.90;;;;;;5028005;28;20639;-64
2021/06/20 06:15:48;;;;;;;4.40;4.00;;;21.70;99.90;;;;;;4997631;28;20620;-65
2021/06/20 06:18:14;;;;;;;5.07;4.03;;;21.70;99.90;;;;;;4991284;28;20752;-64
2021/06/20 06:20:39;;;;;;;5.03;3.70;;;21.60;99.90;;;;;;5025775;28;20214;-64
2021/06/20 06:23:05;;;;;;;5.90;4.57;;;21.60;99.90;;;;;;5008246;28;20255;-64
2021/06/20 06:25:31;;;;;;;4.00;3.70;;;21.60;99.90;;;;;;5031194;28;20314;-64
2021/06/20 06:27:57;;;;;;;5.20;3.90;;;21.50;99.90;;;;;;5030188;28;20623;-64
2021/06/20 06:30:23;;;;;;;5.13;3.60;;;21.50;99.90;;;;;;5019163;28;20670;-65
2021/06/20 06:32:49;;;;;;;4.93;4.43;;;21.50;99.90;;;;;;5025472;28;20212;-64
2021/06/20 06:35:16;;;;;;;6.50;4.17;;;21.60;99.90;;;;;;5018264;28;20661;-64
2021/06/20 06:37:42;;;;;;;6.27;3.93;;;21.60;99.90;;;;;;5030820;28;20611;-65
2021/06/20 06:40:09;;;;;;;5.80;4.33;;;21.60;99.90;;;;;;5017096;28;20623;-64
2021/06/20 06:42:35;;;;;;;4.70;3.70;;;21.60;99.90;;;;;;5020152;28;20610;-65
2021/06/20 06:45:01;;;;;;;4.43;3.73;;;21.60;99.90;;;;;;5026796;28;20646;-65
2021/06/20 06:47:27;;;;;;;4.13;3.63;;;21.60;99.90;;;;;;5012717;28;20626;-64
2021/06/20 06:49:53;;;;;;;5.23;3.60;;;21.50;99.90;;;;;;5015231;28;21184;-65
2021/06/20 06:52:19;;;;;;;4.30;3.63;;;21.60;99.90;;;;;;5018511;28;20743;-65
2021/06/20 06:54:51;;;;;;;7.00;3.70;;;21.60;99.90;;;;;;5015468;28;20232;-65
2021/06/20 06:57:20;;;;;;;5.47;3.97;;;21.60;99.90;;;;;;5000454;28;20417;-65
2021/06/20 06:59:48;;;;;;;5.20;4.70;;;21.60;99.90;;;;;;5012600;28;21163;-64
2021/06/20 07:02:16;;;;;;;5.53;4.10;;;21.60;99.90;;;;;;5013225;28;20630;-65
2021/06/20 07:04:41;;;;;;;6.03;4.03;;;21.70;99.90;;;;;;5020574;28;20697;-64
2021/06/20 07:07:07;;;;;;;5.00;4.60;;;21.70;99.90;;;;;;5004316;28;20621;-69
2021/06/20 07:09:33;;;;;;;7.20;4.67;;;21.80;99.90;;;;;;5019222;28;20597;-70
2021/06/20 07:11:59;;;;;;;6.13;4.40;;;21.90;99.90;;;;;;5020591;28;20246;-69
2021/06/20 07:14:25;;;;;;;6.47;4.60;;;22.00;99.90;;;;;;5014458;28;20712;-69
2021/06/20 07:16:52;;;;;;;5.30;4.33;;;22.00;99.90;;;;;;5017425;28;20679;-68
2021/06/20 07:19:20;;;;;;;6.53;4.90;;;22.10;99.90;;;;;;5024847;28;20702;-68
2021/06/20 07:21:46;;;;;;;5.87;5.10;;;22.20;99.90;;;;;;5004072;28;20647;-68
2021/06/20 07:24:11;;;;;;;5.40;4.90;;;22.20;99.90;;;;;;5000018;28;20646;-68
2021/06/20 07:26:37;;;;;;;6.97;5.10;;;22.20;99.90;;;;;;5021429;28;20723;-68
2021/06/20 07:29:03;;;;;;;6.77;5.17;;;22.30;99.90;;;;;;4991901;28;20219;-69
2021/06/20 07:31:29;;;;;;;6.50;5.47;;;22.50;99.90;;;;;;5024830;28;20225;-69
2021/06/20 07:33:54;;;;;;;5.83;4.60;;;22.50;99.90;;;;;;5026531;28;20213;-69
2021/06/20 07:36:20;;;;;;;6.40;5.27;;;22.50;99.90;;;;;;5016139;28;20619;-69
2021/06/20 07:38:46;;;;;;;7.23;5.30;;;22.50;99.90;;;;;;5019137;28;20185;-70
2021/06/20 07:41:12;;;;;;;7.03;5.33;;;22.60;99.90;;;;;;5017308;28;20631;-70
2021/06/20 07:43:38;;;;;;;8.57;5.60;;;22.70;99.90;;;;;;5121220;22;20342;-69
2021/06/20 07:46:04;;;;;;;6.93;5.00;;;22.80;99.90;;;;;;5015060;28;20631;-70
2021/06/20 07:48:30;;;;;;;8.30;5.23;;;22.70;99.90;;;;;;4990652;28;20285;-69
2021/06/20 07:50:56;;;;;;;5.87;5.20;;;22.80;99.90;;;;;;5002294;28;20270;-70
2021/06/20 07:53:22;;;;;;;5.47;4.97;;;22.90;99.90;;;;;;4978867;28;21055;-70
2021/06/20 07:55:48;;;;;;;6.30;4.87;;;23.00;99.90;;;;;;4986740;28;20200;-70
2021/06/20 07:58:13;;;;;;;4.80;4.40;;;23.10;99.90;;;;;;4977961;28;20818;-70
2021/06/20 08:00:39;;;;;;;6.30;5.00;;;23.20;99.90;;;;;;4962397;28;20651;-69
2021/06/20 08:03:05;;;;;;;7.33;6.20;;;23.20;99.90;;;;;;4989338;28;20225;-65
2021/06/20 08:05:31;;;;;;;9.00;5.30;;;23.30;99.90;;;;;;4964281;28;20651;-65
2021/06/20 08:07:56;;;;;;;5.50;4.40;;;23.20;99.90;;;;;;4966112;28;20225;-65
2021/06/20 08:10:24;;;;;;;6.50;4.90;;;23.30;99.90;;;;;;4982987;28;20574;-66
2021/06/20 08:12:50;;;;;;;7.37;5.07;;;23.40;99.90;;;;;;4976999;28;20196;-66
2021/06/20 08:15:15;;;;;;;6.20;5.13;;;23.50;99.90;;;;;;4989231;28;20624;-66
2021/06/20 08:17:41;;;;;;;7.03;5.20;;;23.50;99.90;;;;;;4988221;28;20250;-66
2021/06/20 08:20:08;;;;;;;7.13;4.80;;;23.70;99.90;;;;;;4989794;28;20870;-66
2021/06/20 08:22:35;;;;;;;6.63;5.30;;;23.70;99.90;;;;;;4988694;28;20627;-65
2021/06/20 08:25:00;;;;;;;8.90;5.63;;;23.70;99.90;;;;;;4972764;28;20652;-66
2021/06/20 08:27:26;;;;;;;6.13;5.53;;;23.80;99.90;;;;;;5000260;28;20719;-66
2021/06/20 08:29:53;;;;;;;6.67;5.43;;;23.80;99.90;;;;;;5002966;28;20280;-66
2021/06/20 08:32:21;;;;;;;6.20;5.60;;;23.90;99.90;;;;;;4997741;28;20289;-65
2021/06/20 08:34:46;;;;;;;9.20;6.03;;;23.90;99.90;;;;;;4992673;28;21747;-65
2021/06/20 08:37:12;;;;;;;6.80;6.10;;;24.00;99.90;;;;;;5003486;28;20608;-66
2021/06/20 08:39:38;;;;;;;8.67;6.03;;;24.00;99.90;;;;;;5002450;28;20563;-66
2021/06/20 08:42:04;;;;;;;6.10;5.47;;;24.00;99.90;;;;;;5007717;28;20220;-66
2021/06/20 08:44:31;;;;;;;6.87;5.90;;;24.00;99.90;;;;;;4987227;28;20225;-66
2021/06/20 08:46:58;;;;;;;6.20;5.60;;;24.00;99.90;;;;;;5007873;28;20616;-66
2021/06/20 08:49:25;;;;;;;7.47;6.03;;;24.00;99.90;;;;;;4986195;28;20709;-66
2021/06/20 08:51:53;;;;;;;6.53;6.03;;;24.10;99.90;;;;;;5002753;28;21273;-66
2021/06/20 08:54:20;;;;;;;8.30;6.00;;;24.10;99.90;;;;;;5003849;28;20632;-66
2021/06/20 08:56:47;;;;;;;6.50;5.83;;;24.10;99.90;;;;;;5000933;28;21459;-66
2021/06/20 08:59:15;;;;;;;6.27;5.60;;;24.10;99.90;;;;;;5004001;28;20612;-65
2021/06/20 09:01:42;;;;;;;7.20;6.17;;;24.10;99.90;;;;;;5000954;28;20754;-66
2021/06/20 09:04:08;;;;;;;7.07;5.67;;;24.10;99.90;;;;;;4998533;28;22132;-65
2021/06/20 09:06:34;;;;;;;8.37;5.60;;;24.10;99.90;;;;;;4995822;28;20630;-66
2021/06/20 09:09:04;;;;;;;5.87;5.37;;;24.10;99.90;;;;;;5005299;28;20209;-66
2021/06/20 09:11:41;;;;;;;6.13;5.63;;;24.20;99.90;;;;;;4999826;28;20671;-66
2021/06/20 09:14:09;;;;;;;6.10;5.20;;;24.20;99.90;;;;;;5002382;28;21238;-66
2021/06/20 09:16:43;;;;;;;6.50;5.90;;;24.10;99.90;;;;;;4983386;28;20727;-66
2021/06/20 09:19:09;;;;;;;6.93;6.17;;;24.20;99.90;;;;;;4995193;28;20643;-66
2021/06/20 09:21:34;;;;;;;7.03;6.27;;;24.20;99.90;;;;;;5000662;28;21215;-66
2021/06/20 09:24:00;;;;;;;7.20;6.17;;;24.20;99.90;;;;;;4998969;28;20973;-66
2021/06/20 09:26:40;;;;;;;6.87;6.03;;;24.20;99.90;;;;;;4982233;28;20212;-66
2021/06/20 09:29:08;;;;;;;8.03;7.30;;;24.30;99.90;;;;;;4987608;28;20759;-67
2021/06/20 09:31:46;;;;;;;7.50;6.93;;;24.30;99.90;;;;;;4991275;28;21296;-69
2021/06/20 09:34:11;;;;;;;6.97;6.37;;;24.20;99.90;;;;;;4984888;28;20644;-71
2021/06/20 09:36:37;;;;;;;8.13;7.33;;;24.20;99.90;;;;;;4987323;28;20643;-69
2021/06/20 09:39:21;;;;;;;7.93;7.13;;;24.20;99.90;;;;;;4968686;28;20628;-69
2021/06/20 09:42:16;;;;;;;8.37;7.57;;;24.20;99.90;;;;;;4986841;28;20266;-69
2021/06/20 09:44:44;;;;;;;8.13;7.63;;;24.20;99.90;;;;;;4963244;28;20986;-70
2021/06/20 09:47:13;;;;;;;8.00;7.40;;;24.20;99.90;;;;;;4989904;28;20659;-71
2021/06/20 09:49:44;;;;;;;8.80;8.00;;;24.20;99.90;;;;;;4985984;28;20624;-70
2021/06/20 09:52:13;;;;;;;9.27;8.33;;;24.10;99.90;;;;;;4991962;28;21201;-72
2021/06/20 09:54:44;;;;;;;9.20;8.40;;;24.10;99.90;;;;;;4966046;28;20987;-72
2021/06/20 09:57:17;;;;;;;8.90;8.10;;;24.10;99.90;;;;;;4989219;28;20602;-73
2021/06/20 10:00:04;;;;;;;7.93;7.13;;;24.20;99.90;;;;;;4984031;28;21234;-71
2021/06/20 10:02:33;;;;;;;8.10;7.30;;;24.20;99.90;;;;;;4978790;28;20638;-72
2021/06/20 10:05:02;;;;;;;8.77;8.07;;;24.30;99.90;;;;;;4965958;28;20644;-72
2021/06/20 10:07:30;;;;;;;9.40;8.60;;;24.40;99.90;;;;;;4995183;28;20782;-72
2021/06/20 10:09:59;;;;;;;9.43;8.67;;;24.50;99.90;;;;;;4983406;28;20612;-68
2021/06/20 10:12:28;;;;;;;9.20;8.40;;;24.60;99.90;;;;;;4998460;28;20640;-71
2021/06/20 10:14:55;;;;;;;9.37;8.20;;;24.80;99.90;;;;;;4977647;28;20662;-70
2021/06/20 10:17:33;;;;;;;9.63;8.73;;;24.90;99.90;;;;;;4976595;28;20711;-70
2021/06/20 10:20:01;;;;;;;9.87;8.80;;;25.00;99.90;;;;;;4977376;28;20712;-70
2021/06/20 10:22:44;;;;;;;8.97;8.27;;;25.00;99.90;;;;;;4993790;28;20624;-70
2021/06/20 10:25:42;;;;;;;9.33;8.60;;;24.90;99.90;;;;;;4994431;28;20775;-71
2021/06/20 10:28:14;;;;;;;10.13;9.13;;;25.10;99.90;;;;;;4972074;28;20625;-70
2021/06/20 10:30:47;;;;;;;8.60;7.90;;;25.10;99.90;;;;;;4983003;28;20676;-70
2021/06/20 10:33:18;;;;;;;8.93;8.03;;;25.10;99.90;;;;;;4977262;28;20645;-71
2021/06/20 10:35:57;;;;;;;8.77;8.03;;;25.20;99.90;;;;;;5001838;28;21540;-69
2021/06/20 10:38:32;;;;;;;8.00;7.40;;;25.40;99.90;;;;;;4974441;28;20662;-70
2021/06/20 10:40:57;;;;;;;8.17;7.57;;;25.60;99.90;;;;;;4983464;28;20653;-68
2021/06/20 10:43:23;;;;;;;8.13;7.50;;;25.70;99.90;;;;;;4982181;28;20648;-70
2021/06/20 10:45:50;;;;;;;9.30;8.50;;;25.80;99.90;;;;;;4986588;28;20209;-68
2021/06/20 10:48:24;;;;;;;9.00;8.20;;;25.90;99.90;;;;;;4964071;28;20683;-70
2021/06/20 10:50:58;;;;;;;9.00;8.20;;;26.00;99.90;;;;;;4979889;28;21456;-70
2021/06/20 10:53:28;;;;;;;9.30;8.50;;;26.10;99.90;;;;;;4984940;28;20639;-70
2021/06/20 10:55:58;;;;;;;8.53;7.80;;;26.10;99.90;;;;;;4970618;28;20616;-69
2021/06/20 10:58:32;;;;;;;9.10;8.30;;;26.20;99.90;;;;;;4980752;28;20642;-70
2021/06/20 11:01:12;;;;;;;9.63;8.70;;;26.20;99.90;;;;;;4965945;28;20648;-72
2021/06/20 11:03:41;;;;;;;9.00;8.30;;;26.20;99.90;;;;;;4960023;28;20640;-69
2021/06/20 11:06:07;;;;;;;8.63;7.93;;;26.20;99.90;;;;;;4977599;28;20961;-70
2021/06/20 11:08:39;;;;;;;8.67;8.00;;;26.20;99.90;;;;;;4984915;28;20612;-70
2021/06/20 11:11:24;;;;;;;8.50;7.80;;;26.40;99.90;;;;;;4956964;28;20664;-73
2021/06/20 11:14:04;;;;;;;9.13;8.23;;;26.50;99.90;;;;;;4987671;28;20712;-71
2021/06/20 11:16:43;;;;;;;8.50;7.80;;;26.70;99.90;;;;;;4958703;28;21211;-71
2021/06/20 11:19:11;;;;;;;8.63;7.93;;;26.80;99.90;;;;;;4958932;28;20771;-70
2021/06/20 11:21:53;;;;;;;8.43;7.70;;;26.90;99.90;;;;;;4969463;28;20678;-72
2021/06/20 11:24:29;;;;;;;8.83;7.93;;;26.90;99.90;;;;;;4984613;28;20658;-71
2021/06/20 11:26:58;;;;;;;8.33;7.63;;;26.90;99.90;;;;;;4957648;28;20628;-70
2021/06/20 11:29:25;;;;;;;7.70;7.00;;;27.00;99.90;;;;;;4963410;28;21380;-70
2021/06/20 11:31:53;;;;;;;7.20;6.70;;;27.00;99.90;;;;;;4989226;28;20692;-70
2021/06/20 11:34:20;;;;;;;7.60;7.00;;;27.00;99.90;;;;;;4984715;28;20643;-69
2021/06/20 11:36:45;;;;;;;8.43;7.10;;;27.20;99.90;;;;;;4992650;28;20620;-70
2021/06/20 11:39:13;;;;;;;8.50;7.70;;;27.30;99.90;;;;;;4989251;28;20628;-69
2021/06/20 11:41:51;;;;;;;8.10;7.50;;;27.40;99.90;;;;;;4983128;28;20217;-70
2021/06/20 11:44:18;;;;;;;6.83;6.23;;;27.40;99.90;;;;;;4995968;28;20713;-69
2021/06/20 11:46:47;;;;;;;7.60;7.00;;;27.40;99.90;;;;;;4990185;28;20765;-69
2021/06/20 11:49:14;;;;;;;7.37;6.77;;;27.50;99.90;;;;;;4994223;28;21167;-70
2021/06/20 11:51:45;;;;;;;7.03;6.53;;;27.60;99.90;;;;;;4978800;28;20818;-69
2021/06/20 11:54:21;;;;;;;7.50;6.90;;;27.70;99.90;;;;;;4988710;28;20698;-69
2021/06/20 11:56:53;;;;;;;7.07;6.47;;;27.80;99.90;;;;;;4991112;28;22538;-69
2021/06/20 11:59:47;;;;;;;6.30;5.90;;;27.80;99.90;;;;;;4989213;28;20662;-70
2021/06/20 12:02:13;;;;;;;7.17;6.50;;;28.00;99.90;;;;;;4962165;28;21207;-69
2021/06/20 12:04:44;;;;;;;7.33;6.80;;;28.20;99.90;;;;;;4998525;28;20638;-69
2021/06/20 12:07:10;;;;;;;7.00;6.40;;;28.30;99.90;;;;;;4970940;28;20628;-76
2021/06/20 12:09:37;;;;;;;7.17;6.57;;;28.40;99.90;;;;;;4976554;28;20677;-75
2021/06/20 12:12:06;;;;;;;6.87;6.27;;;28.50;99.90;;;;;;4994948;28;22112;-73
2021/06/20 12:14:32;;;;;;;6.67;6.17;;;28.60;99.90;;;;;;4981580;28;21167;-72
2021/06/20 12:16:59;;;;;;;7.00;6.40;;;28.80;99.90;;;;;;4990570;28;21663;-72
2021/06/20 12:19:31;;;;;;;7.17;6.47;;;28.90;99.90;;;;;;4995627;28;20616;-66
2021/06/20 12:22:08;;;;;;;6.97;6.33;;;28.90;99.90;;;;;;4995289;28;21023;-68
2021/06/20 12:24:43;;;;;;;6.87;6.47;;;28.90;99.90;;;;;;4996475;28;20734;-67
2021/06/20 12:27:09;;;;;;;6.23;5.83;;;29.00;99.90;;;;;;4987672;28;20615;-67
2021/06/20 12:29:36;;;;;;;6.80;6.17;;;28.80;99.90;;;;;;4983558;28;20623;-66
2021/06/20 12:32:13;;;;;;;6.77;5.50;;;28.80;99.90;;;;;;4984673;28;20675;-67
2021/06/20 12:34:47;;;;;;;6.27;5.77;;;28.90;99.90;;;;;;4985902;28;20656;-67
2021/06/20 12:37:13;;;;;;;7.13;6.63;;;29.10;99.90;;;;;;4990121;28;20698;-66
2021/06/20 12:40:09;;;;;;;5.90;5.50;;;29.10;99.90;;;;;;4986862;28;20722;-67
2021/06/20 12:42:43;;;;;;;6.13;5.63;;;29.00;99.90;;;;;;4991563;28;20628;-66
2021/06/20 12:45:17;;;;;;;8.07;5.20;;;29.00;99.90;;;;;;4981723;28;20694;-67